sensor_id;sensor_type;location;lat;lon;timestamp;pressure;altitude;pressure_sealevel;temperature;humidity
27210;BME280;14721;42.668;23.386;2023-04-06T00:00:12;95087.53;;;0.80;80.66
27210;BME280;14721;42.668;23.386;2023-04-06T00:02:43;95091.91;;;0.80;79.69
27210;BME280;14721;42.668;23.386;2023-04-06T00:05:18;95072.63;;;0.81;78.57
27210;BME280;14721;42.668;23.386;2023-04-06T00:07:47;95079.25;;;0.89;77.99
27210;BME280;14721;42.668;23.386;2023-04-06T00:10:23;95068.81;;;0.88;77.52
27210;BME280;14721;42.668;23.386;2023-04-06T00:12:49;95075.88;;;0.86;77.46
27210;BME280;14721;42.668;23.386;2023-04-06T00:15:16;95071.25;;;0.92;76.58
27210;BME280;14721;42.668;23.386;2023-04-06T00:17:42;95072.19;;;0.91;76.25
27210;BME280;14721;42.668;23.386;2023-04-06T00:20:10;95071.44;;;0.88;76.30
27210;BME280;14721;42.668;23.386;2023-04-06T00:22:39;95063.22;;;0.95;76.46
27210;BME280;14721;42.668;23.386;2023-04-06T00:25:08;95068.28;;;1.00;76.29
27210;BME280;14721;42.668;23.386;2023-04-06T00:27:45;95061.41;;;0.97;75.99
27210;BME280;14721;42.668;23.386;2023-04-06T00:30:10;95072.19;;;0.91;76.20
27210;BME280;14721;42.668;23.386;2023-04-06T00:32:36;95049.47;;;0.89;76.29
27210;BME280;14721;42.668;23.386;2023-04-06T00:35:02;95060.47;;;0.98;76.13
27210;BME280;14721;42.668;23.386;2023-04-06T00:37:30;95062.16;;;0.99;76.23
27210;BME280;14721;42.668;23.386;2023-04-06T00:40:01;95060.16;;;1.06;75.68
27210;BME280;14721;42.668;23.386;2023-04-06T00:43:12;95053.56;;;1.16;75.79
27210;BME280;14721;42.668;23.386;2023-04-06T00:45:38;95047.34;;;1.18;75.86
27210;BME280;14721;42.668;23.386;2023-04-06T00:48:05;95043.78;;;1.19;75.05
27210;BME280;14721;42.668;23.386;2023-04-06T00:50:34;95052.28;;;1.26;75.30
27210;BME280;14721;42.668;23.386;2023-04-06T00:53:11;95044.38;;;1.26;75.16
27210;BME280;14721;42.668;23.386;2023-04-06T00:55:38;95047.16;;;1.23;75.47
27210;BME280;14721;42.668;23.386;2023-04-06T00:58:12;95044.66;;;1.20;75.43
27210;BME280;14721;42.668;23.386;2023-04-06T01:00:38;95049.03;;;1.19;75.96
27210;BME280;14721;42.668;23.386;2023-04-06T01:03:08;95039.88;;;1.28;75.66
27210;BME280;14721;42.668;23.386;2023-04-06T01:05:36;95049.25;;;1.35;75.34
27210;BME280;14721;42.668;23.386;2023-04-06T01:08:16;95045.56;;;1.39;75.20
27210;BME280;14721;42.668;23.386;2023-04-06T01:10:42;95039.28;;;1.41;75.00
27210;BME280;14721;42.668;23.386;2023-04-06T01:13:07;95039.50;;;1.37;75.10
27210;BME280;14721;42.668;23.386;2023-04-06T01:15:39;95044.34;;;1.46;74.69
27210;BME280;14721;42.668;23.386;2023-04-06T01:18:09;95037.13;;;1.51;74.36
27210;BME280;14721;42.668;23.386;2023-04-06T01:20:37;95037.66;;;1.59;73.54
27210;BME280;14721;42.668;23.386;2023-04-06T01:23:09;95033.88;;;1.64;73.51
27210;BME280;14721;42.668;23.386;2023-04-06T01:25:36;95033.03;;;1.64;73.16
27210;BME280;14721;42.668;23.386;2023-04-06T01:28:07;95032.47;;;1.57;73.48
27210;BME280;14721;42.668;23.386;2023-04-06T01:30:33;95030.72;;;1.56;72.91
27210;BME280;14721;42.668;23.386;2023-04-06T01:32:58;95027.31;;;1.54;73.43
27210;BME280;14721;42.668;23.386;2023-04-06T01:35:27;95030.66;;;1.58;73.75
27210;BME280;14721;42.668;23.386;2023-04-06T01:38:06;95023.69;;;1.57;74.36
27210;BME280;14721;42.668;23.386;2023-04-06T01:40:48;95020.53;;;1.49;74.21
27210;BME280;14721;42.668;23.386;2023-04-06T01:43:18;95017.84;;;1.50;74.07
27210;BME280;14721;42.668;23.386;2023-04-06T01:45:47;95021.19;;;1.54;74.14
27210;BME280;14721;42.668;23.386;2023-04-06T01:48:17;95019.50;;;1.53;74.01
27210;BME280;14721;42.668;23.386;2023-04-06T01:50:43;95013.97;;;1.59;73.46
27210;BME280;14721;42.668;23.386;2023-04-06T01:53:14;95010.66;;;1.54;74.08
27210;BME280;14721;42.668;23.386;2023-04-06T01:55:42;95017.63;;;1.55;74.03
27210;BME280;14721;42.668;23.386;2023-04-06T01:58:10;95001.91;;;1.53;73.67
27210;BME280;14721;42.668;23.386;2023-04-06T02:00:36;95004.19;;;1.61;73.77
27210;BME280;14721;42.668;23.386;2023-04-06T02:03:02;95005.78;;;1.65;73.38
27210;BME280;14721;42.668;23.386;2023-04-06T02:05:31;94996.28;;;1.61;73.39
27210;BME280;14721;42.668;23.386;2023-04-06T02:07:58;95003.97;;;1.65;73.47
27210;BME280;14721;42.668;23.386;2023-04-06T02:10:24;95000.59;;;1.63;73.19
27210;BME280;14721;42.668;23.386;2023-04-06T02:12:50;94991.16;;;1.58;73.43
27210;BME280;14721;42.668;23.386;2023-04-06T02:15:18;95002.16;;;1.67;73.27
27210;BME280;14721;42.668;23.386;2023-04-06T02:17:44;95002.22;;;1.66;73.47
27210;BME280;14721;42.668;23.386;2023-04-06T02:20:14;94988.47;;;1.59;73.51
27210;BME280;14721;42.668;23.386;2023-04-06T02:22:39;95003.63;;;1.73;73.96
27210;BME280;14721;42.668;23.386;2023-04-06T02:25:05;95000.94;;;1.74;74.95
27210;BME280;14721;42.668;23.386;2023-04-06T02:27:40;94993.97;;;1.73;75.38
27210;BME280;14721;42.668;23.386;2023-04-06T02:30:06;94993.38;;;1.67;74.00
27210;BME280;14721;42.668;23.386;2023-04-06T02:32:32;94989.78;;;1.69;74.10
27210;BME280;14721;42.668;23.386;2023-04-06T02:34:57;95004.56;;;1.72;73.25
27210;BME280;14721;42.668;23.386;2023-04-06T02:37:23;95001.34;;;1.65;73.48
27210;BME280;14721;42.668;23.386;2023-04-06T02:39:49;94993.38;;;1.67;73.82
27210;BME280;14721;42.668;23.386;2023-04-06T02:42:15;94993.94;;;1.55;74.53
27210;BME280;14721;42.668;23.386;2023-04-06T02:44:42;95000.38;;;1.68;74.87
27210;BME280;14721;42.668;23.386;2023-04-06T02:47:08;94992.75;;;1.62;75.77
27210;BME280;14721;42.668;23.386;2023-04-06T02:49:42;94994.72;;;1.57;75.96
27210;BME280;14721;42.668;23.386;2023-04-06T02:52:07;94986.03;;;1.55;76.01
27210;BME280;14721;42.668;23.386;2023-04-06T02:54:33;94996.44;;;1.58;75.94
27210;BME280;14721;42.668;23.386;2023-04-06T02:56:58;94989.66;;;1.52;76.02
27210;BME280;14721;42.668;23.386;2023-04-06T02:59:24;94983.13;;;1.42;76.16
27210;BME280;14721;42.668;23.386;2023-04-06T03:01:50;94983.81;;;1.46;76.10
27210;BME280;14721;42.668;23.386;2023-04-06T03:04:18;94997.03;;;1.44;76.17
27210;BME280;14721;42.668;23.386;2023-04-06T03:06:46;94987.25;;;1.48;76.53
27210;BME280;14721;42.668;23.386;2023-04-06T03:09:12;94999.19;;;1.55;76.39
27210;BME280;14721;42.668;23.386;2023-04-06T03:11:39;94990.97;;;1.62;75.75
27210;BME280;14721;42.668;23.386;2023-04-06T03:14:04;94968.47;;;1.55;75.96
27210;BME280;14721;42.668;23.386;2023-04-06T03:16:30;94974.00;;;1.49;75.71
27210;BME280;14721;42.668;23.386;2023-04-06T03:18:58;94978.28;;;1.52;75.57
27210;BME280;14721;42.668;23.386;2023-04-06T03:21:24;94988.81;;;1.52;75.10
27210;BME280;14721;42.668;23.386;2023-04-06T03:23:52;94988.59;;;1.56;74.71
27210;BME280;14721;42.668;23.386;2023-04-06T03:26:24;94978.34;;;1.50;74.68
27210;BME280;14721;42.668;23.386;2023-04-06T03:28:49;94981.84;;;1.51;74.64
27210;BME280;14721;42.668;23.386;2023-04-06T03:31:18;94981.69;;;1.54;74.50
27210;BME280;14721;42.668;23.386;2023-04-06T03:33:49;94978.41;;;1.49;74.06
27210;BME280;14721;42.668;23.386;2023-04-06T03:36:14;94985.41;;;1.68;74.09
27210;BME280;14721;42.668;23.386;2023-04-06T03:38:46;94970.75;;;1.63;74.12
27210;BME280;14721;42.668;23.386;2023-04-06T03:41:14;94985.47;;;1.67;74.12
27210;BME280;14721;42.668;23.386;2023-04-06T03:43:40;94984.38;;;1.72;73.54
27210;BME280;14721;42.668;23.386;2023-04-06T03:46:17;94983.72;;;1.67;73.54
27210;BME280;14721;42.668;23.386;2023-04-06T03:48:42;94984.00;;;1.80;73.53
27210;BME280;14721;42.668;23.386;2023-04-06T03:51:08;94977.03;;;1.79;73.38
27210;BME280;14721;42.668;23.386;2023-04-06T03:53:38;94982.94;;;1.84;72.88
27210;BME280;14721;42.668;23.386;2023-04-06T03:56:04;94984.16;;;1.77;72.81
27210;BME280;14721;42.668;23.386;2023-04-06T03:58:30;94980.44;;;1.81;73.10
27210;BME280;14721;42.668;23.386;2023-04-06T04:00:58;94979.50;;;1.82;72.95
27210;BME280;14721;42.668;23.386;2023-04-06T04:03:23;94977.03;;;1.79;72.65
27210;BME280;14721;42.668;23.386;2023-04-06T04:05:51;94985.16;;;1.93;72.50
27210;BME280;14721;42.668;23.386;2023-04-06T04:08:16;94973.19;;;1.86;72.08
27210;BME280;14721;42.668;23.386;2023-04-06T04:10:42;94991.44;;;1.90;72.36
27210;BME280;14721;42.668;23.386;2023-04-06T04:13:07;94987.63;;;1.96;72.95
27210;BME280;14721;42.668;23.386;2023-04-06T04:15:33;94985.44;;;1.87;73.82
27210;BME280;14721;42.668;23.386;2023-04-06T04:17:58;94992.25;;;1.91;74.00
27210;BME280;14721;42.668;23.386;2023-04-06T04:20:24;94979.38;;;1.85;73.73
27210;BME280;14721;42.668;23.386;2023-04-06T04:22:49;94990.97;;;1.81;73.91
27210;BME280;14721;42.668;23.386;2023-04-06T04:25:19;94977.03;;;1.79;73.58
27210;BME280;14721;42.668;23.386;2023-04-06T04:27:47;94986.72;;;1.78;73.97
27210;BME280;14721;42.668;23.386;2023-04-06T04:30:22;94984.16;;;1.77;73.41
27210;BME280;14721;42.668;23.386;2023-04-06T04:32:50;94971.13;;;1.74;73.71
27210;BME280;14721;42.668;23.386;2023-04-06T04:35:15;94979.44;;;1.83;73.85
27210;BME280;14721;42.668;23.386;2023-04-06T04:37:41;94979.66;;;1.98;73.67
27210;BME280;14721;42.668;23.386;2023-04-06T04:40:07;94981.88;;;2.07;73.12
27210;BME280;14721;42.668;23.386;2023-04-06T04:42:37;94987.13;;;2.07;72.89
27210;BME280;14721;42.668;23.386;2023-04-06T04:45:02;94983.50;;;2.09;72.50
27210;BME280;14721;42.668;23.386;2023-04-06T04:47:28;94988.28;;;2.01;72.52
27210;BME280;14721;42.668;23.386;2023-04-06T04:49:54;94992.19;;;2.11;72.20
27210;BME280;14721;42.668;23.386;2023-04-06T04:52:19;94982.31;;;2.16;72.52
27210;BME280;14721;42.668;23.386;2023-04-06T04:54:45;94982.78;;;2.24;71.71
27210;BME280;14721;42.668;23.386;2023-04-06T04:57:12;94978.44;;;2.23;71.91
27210;BME280;14721;42.668;23.386;2023-04-06T04:59:43;94981.00;;;2.25;71.54
27210;BME280;14721;42.668;23.386;2023-04-06T05:02:13;94986.84;;;2.31;71.56
27210;BME280;14721;42.668;23.386;2023-04-06T05:04:38;94991.59;;;2.42;70.93
27210;BME280;14721;42.668;23.386;2023-04-06T05:07:08;94987.16;;;2.42;70.90
27210;BME280;14721;42.668;23.386;2023-04-06T05:09:37;94982.03;;;2.39;70.94
27210;BME280;14721;42.668;23.386;2023-04-06T05:12:10;94980.19;;;2.41;71.10
27210;BME280;14721;42.668;23.386;2023-04-06T05:14:36;94977.94;;;2.34;70.66
27210;BME280;14721;42.668;23.386;2023-04-06T05:17:07;94977.44;;;2.26;71.55
27210;BME280;14721;42.668;23.386;2023-04-06T05:19:35;94981.28;;;2.37;72.07
27210;BME280;14721;42.668;23.386;2023-04-06T05:22:01;94996.38;;;2.52;71.52
27210;BME280;14721;42.668;23.386;2023-04-06T05:24:29;94988.16;;;2.75;70.97
27210;BME280;14721;42.668;23.386;2023-04-06T05:26:55;94994.03;;;2.63;70.00
27210;BME280;14721;42.668;23.386;2023-04-06T05:29:21;94993.31;;;2.60;70.37
27210;BME280;14721;42.668;23.386;2023-04-06T05:31:46;94987.38;;;2.56;70.99
27210;BME280;14721;42.668;23.386;2023-04-06T05:34:12;94992.63;;;2.56;70.96
27210;BME280;14721;42.668;23.386;2023-04-06T05:36:38;94994.03;;;2.46;71.35
27210;BME280;14721;42.668;23.386;2023-04-06T05:39:05;95003.63;;;2.47;71.81
27210;BME280;14721;42.668;23.386;2023-04-06T05:41:31;94997.34;;;2.50;72.32
27210;BME280;14721;42.668;23.386;2023-04-06T05:43:57;94987.66;;;2.50;72.49
27210;BME280;14721;42.668;23.386;2023-04-06T05:46:31;94992.06;;;2.50;72.97
27210;BME280;14721;42.668;23.386;2023-04-06T05:48:57;94979.69;;;2.52;73.31
27210;BME280;14721;42.668;23.386;2023-04-06T05:51:22;94972.22;;;2.43;73.08
27210;BME280;14721;42.668;23.386;2023-04-06T05:53:51;94980.84;;;2.46;72.78
27210;BME280;14721;42.668;23.386;2023-04-06T05:56:18;94976.25;;;2.50;73.34
27210;BME280;14721;42.668;23.386;2023-04-06T05:58:43;94987.50;;;2.53;72.90
27210;BME280;14721;42.668;23.386;2023-04-06T06:01:09;94987.06;;;2.62;72.90
27210;BME280;14721;42.668;23.386;2023-04-06T06:03:35;94976.91;;;2.72;72.54
27210;BME280;14721;42.668;23.386;2023-04-06T06:06:04;94982.31;;;2.69;73.24
27210;BME280;14721;42.668;23.386;2023-04-06T06:08:30;94977.53;;;2.77;73.02
27210;BME280;14721;42.668;23.386;2023-04-06T06:10:56;94976.81;;;2.73;72.91
27210;BME280;14721;42.668;23.386;2023-04-06T06:13:24;94970.19;;;2.83;73.03
27210;BME280;14721;42.668;23.386;2023-04-06T06:15:52;94970.06;;;3.02;72.44
27210;BME280;14721;42.668;23.386;2023-04-06T06:18:20;94978.41;;;3.11;72.16
27210;BME280;14721;42.668;23.386;2023-04-06T06:20:45;94975.13;;;3.23;72.16
27210;BME280;14721;42.668;23.386;2023-04-06T06:23:14;94976.81;;;3.41;72.17
27210;BME280;14721;42.668;23.386;2023-04-06T06:25:39;94979.59;;;3.55;71.73
27210;BME280;14721;42.668;23.386;2023-04-06T06:28:05;94966.00;;;3.46;71.36
27210;BME280;14721;42.668;23.386;2023-04-06T06:30:31;94975.28;;;3.70;71.28
27210;BME280;14721;42.668;23.386;2023-04-06T06:32:56;94971.44;;;3.75;69.88
27210;BME280;14721;42.668;23.386;2023-04-06T06:35:22;94976.97;;;3.55;69.67
27210;BME280;14721;42.668;23.386;2023-04-06T06:37:47;94963.28;;;3.47;69.97
27210;BME280;14721;42.668;23.386;2023-04-06T06:40:13;94980.56;;;3.70;69.50
27210;BME280;14721;42.668;23.386;2023-04-06T06:42:41;94966.97;;;3.93;69.71
27210;BME280;14721;42.668;23.386;2023-04-06T06:45:09;94971.94;;;4.15;68.44
27210;BME280;14721;42.668;23.386;2023-04-06T06:47:37;94976.06;;;4.20;68.13
27210;BME280;14721;42.668;23.386;2023-04-06T06:50:06;94979.34;;;4.70;67.35
27210;BME280;14721;42.668;23.386;2023-04-06T06:52:32;94965.50;;;5.54;64.88
27210;BME280;14721;42.668;23.386;2023-04-06T06:55:01;94976.59;;;6.31;61.90
27210;BME280;14721;42.668;23.386;2023-04-06T06:57:29;94968.38;;;7.02;58.53
27210;BME280;14721;42.668;23.386;2023-04-06T06:59:58;94968.72;;;7.87;56.35
27210;BME280;14721;42.668;23.386;2023-04-06T07:02:25;94967.69;;;8.63;53.78
27210;BME280;14721;42.668;23.386;2023-04-06T07:04:50;94970.78;;;8.93;51.87
27210;BME280;14721;42.668;23.386;2023-04-06T07:07:16;94976.63;;;9.22;50.90
27210;BME280;14721;42.668;23.386;2023-04-06T07:09:41;94969.59;;;9.21;49.10
27210;BME280;14721;42.668;23.386;2023-04-06T07:12:07;94958.69;;;8.77;50.31
27210;BME280;14721;42.668;23.386;2023-04-06T07:14:35;94967.69;;;8.63;50.71
27210;BME280;14721;42.668;23.386;2023-04-06T07:17:01;94957.88;;;8.76;50.46
27210;BME280;14721;42.668;23.386;2023-04-06T07:19:27;94945.81;;;8.10;52.23
27210;BME280;14721;42.668;23.386;2023-04-06T07:21:52;94963.47;;;8.11;52.61
27210;BME280;14721;42.668;23.386;2023-04-06T07:24:18;94951.25;;;7.96;52.21
27210;BME280;14721;42.668;23.386;2023-04-06T07:26:44;94961.38;;;7.78;52.71
27210;BME280;14721;42.668;23.386;2023-04-06T07:29:09;94969.78;;;7.85;52.81
27210;BME280;14721;42.668;23.386;2023-04-06T07:31:35;94969.50;;;7.25;54.23
27210;BME280;14721;42.668;23.386;2023-04-06T07:34:01;94975.97;;;6.94;55.50
27210;BME280;14721;42.668;23.386;2023-04-06T07:36:26;94966.69;;;7.14;55.62
27210;BME280;14721;42.668;23.386;2023-04-06T07:38:52;94963.47;;;7.48;54.91
27210;BME280;14721;42.668;23.386;2023-04-06T07:41:17;94956.78;;;7.42;54.61
27210;BME280;14721;42.668;23.386;2023-04-06T07:43:43;94958.72;;;7.14;55.07
27210;BME280;14721;42.668;23.386;2023-04-06T07:46:11;94963.78;;;7.04;55.45
27210;BME280;14721;42.668;23.386;2023-04-06T07:48:36;94964.66;;;7.56;53.94
27210;BME280;14721;42.668;23.386;2023-04-06T07:51:03;94957.44;;;8.34;52.69
27210;BME280;14721;42.668;23.386;2023-04-06T07:53:30;94956.38;;;8.24;52.60
27210;BME280;14721;42.668;23.386;2023-04-06T07:55:58;94965.94;;;8.14;51.96
27210;BME280;14721;42.668;23.386;2023-04-06T07:58:24;94955.13;;;8.53;51.04
27210;BME280;14721;42.668;23.386;2023-04-06T08:00:49;94947.00;;;8.67;50.33
27210;BME280;14721;42.668;23.386;2023-04-06T08:03:15;94946.13;;;8.79;49.83
27210;BME280;14721;42.668;23.386;2023-04-06T08:05:42;94959.84;;;8.85;49.89
27210;BME280;14721;42.668;23.386;2023-04-06T08:08:08;94962.44;;;8.98;49.74
27210;BME280;14721;42.668;23.386;2023-04-06T08:10:34;94943.94;;;9.31;49.07
27210;BME280;14721;42.668;23.386;2023-04-06T08:13:00;94951.06;;;9.54;48.16
27210;BME280;14721;42.668;23.386;2023-04-06T08:15:26;94934.44;;;9.50;48.55
27210;BME280;14721;42.668;23.386;2023-04-06T08:17:52;94948.78;;;9.61;47.65
27210;BME280;14721;42.668;23.386;2023-04-06T08:20:17;94948.22;;;9.33;47.42
27210;BME280;14721;42.668;23.386;2023-04-06T08:22:43;94949.13;;;8.74;48.64
27210;BME280;14721;42.668;23.386;2023-04-06T08:25:09;94954.81;;;9.17;48.98
27210;BME280;14721;42.668;23.386;2023-04-06T08:27:34;94947.59;;;9.30;48.53
27210;BME280;14721;42.668;23.386;2023-04-06T08:30:00;94958.22;;;9.53;47.07
27210;BME280;14721;42.668;23.386;2023-04-06T08:32:25;94951.78;;;9.45;47.82
27210;BME280;14721;42.668;23.386;2023-04-06T08:34:53;94951.56;;;9.01;47.68
27210;BME280;14721;42.668;23.386;2023-04-06T08:37:19;94946.13;;;9.02;49.22
27210;BME280;14721;42.668;23.386;2023-04-06T08:39:44;94956.44;;;9.30;47.35
27210;BME280;14721;42.668;23.386;2023-04-06T08:42:15;94959.13;;;9.30;47.25
27210;BME280;14721;42.668;23.386;2023-04-06T08:44:42;94950.59;;;9.25;47.81
27210;BME280;14721;42.668;23.386;2023-04-06T08:47:08;94969.16;;;9.27;47.03
27210;BME280;14721;42.668;23.386;2023-04-06T08:49:34;94945.00;;;8.70;48.42
27210;BME280;14721;42.668;23.386;2023-04-06T08:52:02;94949.47;;;9.17;49.11
27210;BME280;14721;42.668;23.386;2023-04-06T08:54:30;94947.84;;;9.03;47.83
27210;BME280;14721;42.668;23.386;2023-04-06T08:56:56;94955.88;;;8.91;48.88
27210;BME280;14721;42.668;23.386;2023-04-06T08:59:23;94932.97;;;8.04;49.36
27210;BME280;14721;42.668;23.386;2023-04-06T09:01:51;94949.88;;;7.90;51.18
27210;BME280;14721;42.668;23.386;2023-04-06T09:04:17;94945.09;;;7.57;50.71
27210;BME280;14721;42.668;23.386;2023-04-06T09:06:42;94951.56;;;7.41;51.80
27210;BME280;14721;42.668;23.386;2023-04-06T09:09:08;94945.84;;;7.59;51.42
27210;BME280;14721;42.668;23.386;2023-04-06T09:11:50;94947.38;;;7.24;51.72
27210;BME280;14721;42.668;23.386;2023-04-06T09:14:16;94949.56;;;7.57;51.44
27210;BME280;14721;42.668;23.386;2023-04-06T09:16:43;94947.44;;;7.74;51.84
27210;BME280;14721;42.668;23.386;2023-04-06T09:19:10;94945.09;;;7.57;49.96
27210;BME280;14721;42.668;23.386;2023-04-06T09:21:36;94939.03;;;7.55;51.69
27210;BME280;14721;42.668;23.386;2023-04-06T09:24:02;94947.31;;;7.38;51.78
27210;BME280;14721;42.668;23.386;2023-04-06T09:26:29;94932.88;;;7.03;52.21
27210;BME280;14721;42.668;23.386;2023-04-06T09:28:56;94932.31;;;6.98;52.55
27210;BME280;14721;42.668;23.386;2023-04-06T09:31:28;94942.38;;;7.20;52.37
27210;BME280;14721;42.668;23.386;2023-04-06T09:33:55;94929.75;;;7.36;52.90
27210;BME280;14721;42.668;23.386;2023-04-06T09:36:32;94930.09;;;7.44;52.97
27210;BME280;14721;42.668;23.386;2023-04-06T09:39:02;94933.19;;;7.76;53.10
27210;BME280;14721;42.668;23.386;2023-04-06T09:41:33;94925.31;;;7.49;52.63
27210;BME280;14721;42.668;23.386;2023-04-06T09:44:06;94935.59;;;7.28;53.31
27210;BME280;14721;42.668;23.386;2023-04-06T09:46:35;94922.13;;;7.44;53.04
27210;BME280;14721;42.668;23.386;2023-04-06T09:49:04;94919.00;;;7.37;52.17
27210;BME280;14721;42.668;23.386;2023-04-06T09:51:39;94923.19;;;7.54;52.34
27210;BME280;14721;42.668;23.386;2023-04-06T09:54:09;94912.34;;;7.69;52.10
27210;BME280;14721;42.668;23.386;2023-04-06T09:56:46;94917.75;;;7.30;50.50
27210;BME280;14721;42.668;23.386;2023-04-06T09:59:29;94917.59;;;7.07;52.26
27210;BME280;14721;42.668;23.386;2023-04-06T10:01:59;94936.72;;;7.12;52.93
27210;BME280;14721;42.668;23.386;2023-04-06T10:04:49;94930.84;;;6.68;52.46
27210;BME280;14721;42.668;23.386;2023-04-06T10:07:18;94922.91;;;6.80;52.81
27210;BME280;14721;42.668;23.386;2023-04-06T10:09:45;94912.28;;;6.80;53.33
27210;BME280;14721;42.668;23.386;2023-04-06T10:12:12;94915.75;;;6.95;53.17
27210;BME280;14721;42.668;23.386;2023-04-06T10:14:39;94926.56;;;6.65;53.51
27210;BME280;14721;42.668;23.386;2023-04-06T10:17:06;94911.41;;;6.67;52.95
27210;BME280;14721;42.668;23.386;2023-04-06T10:22:32;94905.16;;;6.42;53.58
27210;BME280;14721;42.668;23.386;2023-04-06T10:25:04;94927.44;;;6.39;54.02
27210;BME280;14721;42.668;23.386;2023-04-06T10:27:30;94916.06;;;6.37;53.49
27210;BME280;14721;42.668;23.386;2023-04-06T10:30:02;94912.16;;;6.43;54.67
27210;BME280;14721;42.668;23.386;2023-04-06T10:32:35;94931.16;;;6.23;53.67
27210;BME280;14721;42.668;23.386;2023-04-06T10:35:11;94917.94;;;6.35;53.63
27210;BME280;14721;42.668;23.386;2023-04-06T10:37:52;94918.13;;;6.46;53.77
27210;BME280;14721;42.668;23.386;2023-04-06T10:40:20;94913.72;;;6.59;53.05
27210;BME280;14721;42.668;23.386;2023-04-06T10:42:46;94915.34;;;6.62;54.00
27210;BME280;14721;42.668;23.386;2023-04-06T10:45:22;94930.09;;;6.66;53.07
27210;BME280;14721;42.668;23.386;2023-04-06T10:47:48;94935.59;;;6.63;53.31
27210;BME280;14721;42.668;23.386;2023-04-06T10:50:16;94925.47;;;6.55;53.28
27210;BME280;14721;42.668;23.386;2023-04-06T10:52:45;94937.66;;;6.45;52.87
27210;BME280;14721;42.668;23.386;2023-04-06T10:55:13;94932.28;;;6.59;52.76
27210;BME280;14721;42.668;23.386;2023-04-06T10:57:39;94916.75;;;6.53;52.94
27210;BME280;14721;42.668;23.386;2023-04-06T11:00:06;94920.84;;;6.59;52.95
27210;BME280;14721;42.668;23.386;2023-04-06T11:02:32;94919.38;;;6.67;53.80
27210;BME280;14721;42.668;23.386;2023-04-06T11:04:58;94904.72;;;6.74;53.21
27210;BME280;14721;42.668;23.386;2023-04-06T11:07:27;94911.88;;;6.86;53.31
27210;BME280;14721;42.668;23.386;2023-04-06T11:09:55;94922.63;;;6.85;52.98
27210;BME280;14721;42.668;23.386;2023-04-06T11:12:26;94918.94;;;7.00;52.83
27210;BME280;14721;42.668;23.386;2023-04-06T11:15:01;94913.50;;;6.89;52.59
27210;BME280;14721;42.668;23.386;2023-04-06T11:17:35;94922.72;;;6.83;51.60
27210;BME280;14721;42.668;23.386;2023-04-06T11:20:02;94918.06;;;6.87;52.43
27210;BME280;14721;42.668;23.386;2023-04-06T11:22:31;94907.72;;;7.21;50.82
27210;BME280;14721;42.668;23.386;2023-04-06T11:25:06;94899.59;;;7.37;51.63
27210;BME280;14721;42.668;23.386;2023-04-06T11:27:34;94902.09;;;7.26;50.96
27210;BME280;14721;42.668;23.386;2023-04-06T11:30:01;94909.78;;;7.30;51.71
27210;BME280;14721;42.668;23.386;2023-04-06T11:32:26;94901.38;;;7.36;50.04
27210;BME280;14721;42.668;23.386;2023-04-06T11:34:53;94899.16;;;7.43;50.93
27210;BME280;14721;42.668;23.386;2023-04-06T11:37:18;94903.63;;;7.55;50.35
27210;BME280;14721;42.668;23.386;2023-04-06T11:39:49;94892.13;;;7.54;49.49
27210;BME280;14721;42.668;23.386;2023-04-06T11:42:27;94877.69;;;7.46;50.03
27210;BME280;14721;42.668;23.386;2023-04-06T11:44:58;94896.38;;;7.57;49.63
27210;BME280;14721;42.668;23.386;2023-04-06T11:47:29;94890.13;;;7.58;50.11
27210;BME280;14721;42.668;23.386;2023-04-06T11:50:05;94882.56;;;7.77;49.70
27210;BME280;14721;42.668;23.386;2023-04-06T11:52:31;94881.47;;;7.92;49.17
27210;BME280;14721;42.668;23.386;2023-04-06T11:54:56;94890.22;;;7.82;50.24
27210;BME280;14721;42.668;23.386;2023-04-06T11:57:22;94886.91;;;7.40;49.08
27210;BME280;14721;42.668;23.386;2023-04-06T11:59:50;94891.81;;;7.46;49.99
27210;BME280;14721;42.668;23.386;2023-04-06T12:02:16;94888.63;;;7.41;49.97
27210;BME280;14721;42.668;23.386;2023-04-06T12:04:43;94892.13;;;7.54;49.95
27210;BME280;14721;42.668;23.386;2023-04-06T12:07:08;94888.19;;;7.60;50.32
27210;BME280;14721;42.668;23.386;2023-04-06T12:09:34;94896.41;;;7.44;50.47
27210;BME280;14721;42.668;23.386;2023-04-06T12:11:59;94888.41;;;7.32;50.06
27210;BME280;14721;42.668;23.386;2023-04-06T12:14:29;94880.63;;;7.16;51.17
27210;BME280;14721;42.668;23.386;2023-04-06T12:16:59;94882.84;;;7.10;50.19
27210;BME280;14721;42.668;23.386;2023-04-06T12:19:27;94889.22;;;7.07;50.50
27210;BME280;14721;42.668;23.386;2023-04-06T12:21:53;94883.38;;;7.15;51.34
27210;BME280;14721;42.668;23.386;2023-04-06T12:24:19;94883.91;;;7.07;51.53
27210;BME280;14721;42.668;23.386;2023-04-06T12:26:46;94885.22;;;7.14;51.63
27210;BME280;14721;42.668;23.386;2023-04-06T12:29:12;94885.41;;;7.24;50.84
27210;BME280;14721;42.668;23.386;2023-04-06T12:31:38;94883.81;;;7.21;51.14
27210;BME280;14721;42.668;23.386;2023-04-06T12:34:06;94863.63;;;7.06;50.97
27210;BME280;14721;42.668;23.386;2023-04-06T12:36:32;94881.69;;;7.14;50.78
27210;BME280;14721;42.668;23.386;2023-04-06T12:39:01;94875.22;;;6.79;51.23
27210;BME280;14721;42.668;23.386;2023-04-06T12:41:28;94856.34;;;6.83;50.80
27210;BME280;14721;42.668;23.386;2023-04-06T12:43:53;94862.66;;;7.20;50.58
27210;BME280;14721;42.668;23.386;2023-04-06T12:46:19;94867.78;;;7.35;50.14
27210;BME280;14721;42.668;23.386;2023-04-06T12:48:46;94862.78;;;7.31;49.23
27210;BME280;14721;42.668;23.386;2023-04-06T12:51:12;94863.31;;;7.36;49.52
27210;BME280;14721;42.668;23.386;2023-04-06T12:53:38;94858.09;;;7.34;49.64
27210;BME280;14721;42.668;23.386;2023-04-06T12:56:14;94862.78;;;7.31;49.87
27210;BME280;14721;42.668;23.386;2023-04-06T12:58:41;94857.03;;;7.12;50.32
27210;BME280;14721;42.668;23.386;2023-04-06T13:01:07;94859.78;;;7.10;49.74
27210;BME280;14721;42.668;23.386;2023-04-06T13:03:33;94857.03;;;6.99;49.74
27210;BME280;14721;42.668;23.386;2023-04-06T13:06:00;94840.53;;;6.94;50.94